createdAt,value
2017-08-21T00:00:37.023Z,6.50
2017-08-21T00:01:37.002Z,6.20
2017-08-21T00:02:36.976Z,5.90
2017-08-21T00:03:36.969Z,6.20
2017-08-21T00:04:36.940Z,5.20
2017-08-21T00:05:36.915Z,6.10
2017-08-21T00:06:36.898Z,6.30
2017-08-21T00:07:36.875Z,6.60
2017-08-21T00:08:36.851Z,5.40
2017-08-21T00:09:36.833Z,5.90
2017-08-21T00:10:36.813Z,5.50
2017-08-21T00:11:36.795Z,5.50
2017-08-21T00:12:36.769Z,6.00
2017-08-21T00:13:36.748Z,5.90
2017-08-21T00:14:36.732Z,5.80
2017-08-21T00:15:36.710Z,5.70
2017-08-21T00:16:36.690Z,6.10
2017-08-21T00:17:36.666Z,5.70
2017-08-21T00:18:36.647Z,5.60
2017-08-21T00:19:36.627Z,5.50
2017-08-21T00:20:36.607Z,5.40
2017-08-21T00:21:36.581Z,5.80
2017-08-21T00:22:36.562Z,5.40
2017-08-21T00:23:36.543Z,6.50
2017-08-21T00:24:36.524Z,6.30
2017-08-21T00:25:36.499Z,5.60
2017-08-21T00:26:36.480Z,5.20
2017-08-21T00:27:36.460Z,4.90
2017-08-21T00:28:36.441Z,5.60
2017-08-21T00:29:36.420Z,5.10
2017-08-21T00:30:36.400Z,5.30
2017-08-21T00:31:36.378Z,5.40
2017-08-21T00:32:36.358Z,5.90
2017-08-21T00:33:36.332Z,5.40
2017-08-21T00:34:36.312Z,5.90
2017-08-21T00:35:36.296Z,5.60
2017-08-21T00:36:36.272Z,5.00
2017-08-21T00:37:36.253Z,5.10
2017-08-21T00:38:36.232Z,5.30
2017-08-21T00:39:36.207Z,5.10
2017-08-21T00:40:36.188Z,4.60
2017-08-21T00:41:36.166Z,4.80
2017-08-21T00:42:36.149Z,5.30
2017-08-21T00:43:36.125Z,4.90
2017-08-21T00:44:36.107Z,4.60
2017-08-21T00:45:36.093Z,5.30
2017-08-21T00:46:36.067Z,4.50
2017-08-21T00:47:36.044Z,4.80
2017-08-21T00:48:36.025Z,5.00
2017-08-21T00:49:36.000Z,5.00
2017-08-21T00:50:35.982Z,4.90
2017-08-21T00:51:35.962Z,5.20
2017-08-21T00:52:35.942Z,4.70
2017-08-21T00:53:35.917Z,4.40
2017-08-21T00:54:35.897Z,5.10
2017-08-21T00:55:35.880Z,5.30
2017-08-21T00:56:35.854Z,4.80
2017-08-21T00:57:35.837Z,4.60
2017-08-21T00:58:35.812Z,4.30
2017-08-21T00:59:35.791Z,4.90
2017-08-21T01:00:35.776Z,4.40
2017-08-21T01:01:35.753Z,4.80
2017-08-21T01:02:35.733Z,4.20
2017-08-21T01:03:35.712Z,4.30
2017-08-21T01:04:35.692Z,4.60
2017-08-21T01:05:35.670Z,4.30
2017-08-21T01:06:35.652Z,4.30
2017-08-21T01:07:35.626Z,4.60
2017-08-21T01:08:35.605Z,4.30
2017-08-21T01:09:35.587Z,4.50
2017-08-21T01:10:35.565Z,3.90
2017-08-21T01:11:35.545Z,4.00
2017-08-21T01:12:35.529Z,4.20
2017-08-21T01:13:35.503Z,4.70
2017-08-21T01:14:35.481Z,3.80
2017-08-21T01:15:35.459Z,4.10
2017-08-21T01:16:35.443Z,4.00
2017-08-21T01:17:35.419Z,3.90
2017-08-21T01:18:35.398Z,4.50
2017-08-21T01:19:35.379Z,4.30
2017-08-21T01:20:35.356Z,4.00
2017-08-21T01:21:35.336Z,4.00
2017-08-21T01:22:35.332Z,3.80
2017-08-21T01:23:35.294Z,3.80
2017-08-21T01:24:35.273Z,4.00
2017-08-21T01:25:35.251Z,3.90
2017-08-21T01:26:35.231Z,4.20
2017-08-21T01:27:35.211Z,3.70
2017-08-21T01:28:35.193Z,4.20
2017-08-21T01:29:35.173Z,3.80
2017-08-21T01:30:35.148Z,3.90
2017-08-21T01:31:35.130Z,3.60
2017-08-21T01:32:35.106Z,3.30
2017-08-21T01:33:35.094Z,3.20
2017-08-21T01:34:35.065Z,3.60
2017-08-21T01:35:35.047Z,4.10
2017-08-21T01:36:35.022Z,3.70
2017-08-21T01:37:35.004Z,3.60
2017-08-21T01:38:34.986Z,3.80
2017-08-21T01:39:34.961Z,3.40
2017-08-21T01:40:34.939Z,3.80
2017-08-21T01:41:34.922Z,3.80
2017-08-21T01:42:34.901Z,4.10
2017-08-21T01:43:34.877Z,3.50
2017-08-21T01:44:34.857Z,3.30
2017-08-21T01:45:34.839Z,3.60
2017-08-21T01:46:34.823Z,3.60
2017-08-21T01:47:34.794Z,4.00
2017-08-21T01:48:34.777Z,3.50
2017-08-21T01:49:34.754Z,3.50
2017-08-21T01:50:34.731Z,3.60
2017-08-21T01:51:34.713Z,3.30
2017-08-21T01:52:34.691Z,3.30
2017-08-21T01:53:34.670Z,3.60
2017-08-21T01:54:34.652Z,3.70
2017-08-21T01:55:34.629Z,3.40
2017-08-21T01:56:34.611Z,3.40
2017-08-21T01:57:34.590Z,3.30
2017-08-21T01:58:34.570Z,3.30
2017-08-21T01:59:34.546Z,3.40
2017-08-21T02:00:34.527Z,3.60
2017-08-21T02:01:34.505Z,3.20
2017-08-21T02:02:34.481Z,3.80
2017-08-21T02:03:34.469Z,3.30
2017-08-21T02:04:34.444Z,3.40
2017-08-21T02:05:34.424Z,2.90
2017-08-21T02:06:34.404Z,3.20
2017-08-21T02:07:34.379Z,3.20
2017-08-21T02:08:34.375Z,3.20
2017-08-21T02:09:34.336Z,3.10
2017-08-21T02:10:34.317Z,3.00
2017-08-21T02:11:34.295Z,3.10
2017-08-21T02:12:34.277Z,3.20
2017-08-21T02:13:34.255Z,3.00
2017-08-21T02:14:34.230Z,3.20
2017-08-21T02:15:34.210Z,3.40
2017-08-21T02:16:34.192Z,3.30
2017-08-21T02:17:34.173Z,3.20
2017-08-21T02:18:34.153Z,3.20
2017-08-21T02:19:34.131Z,3.10
2017-08-21T02:20:34.108Z,3.20
2017-08-21T02:21:34.086Z,3.10
2017-08-21T02:22:34.064Z,2.90
2017-08-21T02:23:34.048Z,3.40
2017-08-21T02:24:34.028Z,3.20
2017-08-21T02:25:34.006Z,3.40
2017-08-21T02:26:33.986Z,3.00
2017-08-21T02:27:33.964Z,3.00
2017-08-21T02:28:33.944Z,3.00
2017-08-21T02:29:33.922Z,2.70
2017-08-21T02:30:33.900Z,2.90
2017-08-21T02:31:33.879Z,3.10
2017-08-21T02:32:33.858Z,3.30
2017-08-21T02:33:33.834Z,3.20
2017-08-21T02:34:33.819Z,3.30
2017-08-21T02:35:33.793Z,3.00
2017-08-21T02:36:33.776Z,3.20
2017-08-21T02:37:33.756Z,2.80
2017-08-21T02:38:33.732Z,3.10
2017-08-21T02:39:33.711Z,3.00
2017-08-21T02:40:33.694Z,2.80
2017-08-21T02:41:33.673Z,3.20
2017-08-21T02:42:33.650Z,2.80
2017-08-21T02:43:33.630Z,3.10
2017-08-21T02:44:33.606Z,3.10
2017-08-21T02:45:33.587Z,2.80
2017-08-21T02:46:33.569Z,2.80
2017-08-21T02:47:33.543Z,2.80
2017-08-21T02:48:33.527Z,2.80
2017-08-21T02:49:33.507Z,3.00
2017-08-21T02:50:33.483Z,3.10
2017-08-21T02:51:33.462Z,2.80
2017-08-21T02:52:33.442Z,2.70
2017-08-21T02:53:33.421Z,2.90
2017-08-21T02:54:33.399Z,2.60
2017-08-21T02:55:33.378Z,2.80
2017-08-21T02:56:33.358Z,3.10
2017-08-21T02:57:33.338Z,2.90
2017-08-21T02:58:33.315Z,3.00
2017-08-21T02:59:33.295Z,2.90
2017-08-21T03:00:33.275Z,2.60
2017-08-21T03:01:33.256Z,2.90
2017-08-21T03:02:33.234Z,2.70
2017-08-21T03:03:33.210Z,2.70
2017-08-21T03:04:33.187Z,2.80
2017-08-21T03:05:33.172Z,2.40
2017-08-21T03:06:33.149Z,2.80
2017-08-21T03:07:33.128Z,2.60
2017-08-21T03:08:33.108Z,2.90
2017-08-21T03:09:33.086Z,2.70
2017-08-21T03:10:33.067Z,5.60
2017-08-21T03:11:33.046Z,8.30
2017-08-21T03:12:33.026Z,11.40
2017-08-21T03:13:33.003Z,8.90
2017-08-21T03:14:32.980Z,14.90
2017-08-21T03:15:32.958Z,13.00
2017-08-21T03:16:32.943Z,20.80
2017-08-21T03:17:32.917Z,32.20
2017-08-21T03:18:32.898Z,45.10
2017-08-21T03:19:32.876Z,42.30
2017-08-21T03:20:32.860Z,41.00
2017-08-21T03:21:32.838Z,45.00
2017-08-21T03:22:32.815Z,54.30
2017-08-21T03:23:32.795Z,48.40
2017-08-21T03:24:32.775Z,46.00
2017-08-21T03:25:32.750Z,40.20
2017-08-21T03:26:32.729Z,40.50
2017-08-21T03:27:32.710Z,39.70
2017-08-21T03:28:32.705Z,36.90
2017-08-21T03:29:32.668Z,36.80
2017-08-21T03:30:32.646Z,41.70
2017-08-21T03:31:32.628Z,42.20
2017-08-21T03:32:32.608Z,42.80
2017-08-21T03:33:32.585Z,35.20
2017-08-21T03:34:32.564Z,17.80
2017-08-21T03:35:32.540Z,13.90
2017-08-21T03:36:32.522Z,22.40
2017-08-21T03:37:32.503Z,18.30
2017-08-21T03:38:32.478Z,15.30
2017-08-21T03:39:32.458Z,11.80
2017-08-21T03:40:32.434Z,10.10
2017-08-21T03:41:32.413Z,19.60
2017-08-21T03:42:32.397Z,14.30
2017-08-21T03:43:32.372Z,19.20
2017-08-21T03:44:32.351Z,16.60
2017-08-21T03:45:32.329Z,15.40
2017-08-21T03:46:32.307Z,12.20
2017-08-21T03:47:32.284Z,11.90
2017-08-21T03:48:32.267Z,10.00
2017-08-21T03:49:32.241Z,8.60
2017-08-21T03:50:32.220Z,8.90
2017-08-21T03:51:32.200Z,9.70
2017-08-21T03:52:32.176Z,9.80
2017-08-21T03:53:32.159Z,9.30
2017-08-21T03:54:32.138Z,8.90
2017-08-21T03:55:32.117Z,9.00
2017-08-21T03:56:32.090Z,9.00
2017-08-21T03:57:32.072Z,9.00
2017-08-21T03:58:32.049Z,9.10
2017-08-21T03:59:32.026Z,8.30
2017-08-21T04:00:32.009Z,9.10
2017-08-21T04:01:31.988Z,8.90
2017-08-21T04:02:31.963Z,8.30
2017-08-21T04:03:31.940Z,9.90
2017-08-21T04:04:31.919Z,10.70
2017-08-21T04:05:31.900Z,12.50
2017-08-21T04:06:31.876Z,20.00
2017-08-21T04:07:31.854Z,26.00
2017-08-21T04:08:31.835Z,29.90
2017-08-21T04:09:31.814Z,32.30
2017-08-21T04:10:31.796Z,43.70
2017-08-21T04:11:31.774Z,43.90
2017-08-21T04:12:31.750Z,47.10
2017-08-21T04:13:31.728Z,41.50
2017-08-21T04:14:31.709Z,32.40
2017-08-21T04:15:31.686Z,26.90
2017-08-21T04:16:31.665Z,30.50
2017-08-21T04:17:31.643Z,39.60
2017-08-21T04:18:31.623Z,53.10
2017-08-21T04:19:31.601Z,63.50
2017-08-21T04:20:31.581Z,66.20
2017-08-21T04:21:31.562Z,69.10
2017-08-21T04:22:31.539Z,77.60
2017-08-21T04:23:31.516Z,93.30
2017-08-21T04:24:31.493Z,101.60
2017-08-21T04:25:31.473Z,112.20
2017-08-21T04:26:31.457Z,123.70
2017-08-21T04:27:31.435Z,110.00
2017-08-21T04:28:31.410Z,109.80
2017-08-21T04:29:31.393Z,127.00
2017-08-21T04:30:31.371Z,130.80
2017-08-21T04:31:31.344Z,129.50
2017-08-21T04:32:31.326Z,127.40
2017-08-21T04:33:31.306Z,128.40
2017-08-21T04:34:31.282Z,124.80
2017-08-21T04:35:31.262Z,108.50
2017-08-21T04:36:31.242Z,105.40
2017-08-21T04:37:31.220Z,98.70
2017-08-21T04:38:31.201Z,98.90
2017-08-21T04:39:31.180Z,95.30
2017-08-21T04:40:31.159Z,91.70
2017-08-21T04:41:31.133Z,91.90
2017-08-21T04:42:31.114Z,95.10
2017-08-21T04:43:31.096Z,100.70
2017-08-21T04:44:31.075Z,98.60
2017-08-21T04:45:31.052Z,101.10
2017-08-21T04:46:31.029Z,97.80
2017-08-21T04:47:31.008Z,92.20
2017-08-21T04:48:30.989Z,85.50
2017-08-21T04:49:30.971Z,78.00
2017-08-21T04:50:30.946Z,75.70
2017-08-21T04:51:30.924Z,75.30
2017-08-21T04:52:30.905Z,82.80
2017-08-21T04:53:30.883Z,79.80
2017-08-21T04:54:30.871Z,82.00
2017-08-21T04:55:30.843Z,82.10
2017-08-21T04:56:30.818Z,75.30
2017-08-21T04:57:30.798Z,70.80
2017-08-21T04:58:30.781Z,67.60
2017-08-21T04:59:30.756Z,63.60
2017-08-21T05:00:30.736Z,58.30
2017-08-21T05:01:30.717Z,58.80
2017-08-21T05:02:30.694Z,58.80
2017-08-21T05:03:30.674Z,60.20
2017-08-21T05:04:30.650Z,64.40
2017-08-21T05:05:30.629Z,63.60
2017-08-21T05:06:30.610Z,59.50
2017-08-21T05:07:30.585Z,59.20
2017-08-21T05:08:30.566Z,62.10
2017-08-21T05:09:30.543Z,61.00
2017-08-21T05:10:30.526Z,58.70
2017-08-21T05:11:30.503Z,61.50
2017-08-21T05:12:30.485Z,56.70
2017-08-21T05:13:30.464Z,55.40
2017-08-21T05:14:30.443Z,51.10
2017-08-21T05:15:30.427Z,49.50
2017-08-21T05:16:30.400Z,48.30
2017-08-21T05:17:30.380Z,50.10
2017-08-21T05:18:30.357Z,48.10
2017-08-21T05:19:30.336Z,48.60
2017-08-21T05:20:30.316Z,49.60
2017-08-21T05:21:30.291Z,48.20
2017-08-21T05:22:30.275Z,50.60
2017-08-21T05:23:30.249Z,51.30
2017-08-21T05:24:30.229Z,45.30
2017-08-21T05:25:30.214Z,49.40
2017-08-21T05:26:30.188Z,44.40
2017-08-21T05:27:30.166Z,46.00
2017-08-21T05:28:30.147Z,47.90
2017-08-21T05:29:30.125Z,44.70
2017-08-21T05:30:30.106Z,42.80
2017-08-21T05:31:30.083Z,40.40
2017-08-21T05:32:30.059Z,38.40
2017-08-21T05:33:30.043Z,40.30
2017-08-21T05:34:30.019Z,41.70
2017-08-21T05:35:29.996Z,39.90
2017-08-21T05:36:29.976Z,40.10
2017-08-21T05:37:29.954Z,39.90
2017-08-21T05:38:29.939Z,39.80
2017-08-21T05:39:29.916Z,36.40
2017-08-21T05:40:29.898Z,34.60
2017-08-21T05:41:29.871Z,35.10
2017-08-21T05:42:29.852Z,34.20
2017-08-21T05:43:29.827Z,31.70
2017-08-21T05:44:29.809Z,30.30
2017-08-21T05:45:29.788Z,31.10
2017-08-21T05:46:29.766Z,32.10
2017-08-21T05:47:29.745Z,33.90
2017-08-21T05:48:29.724Z,33.90
2017-08-21T05:49:29.706Z,33.00
2017-08-21T05:50:29.684Z,30.60
2017-08-21T05:51:29.664Z,28.50
2017-08-21T05:52:29.641Z,26.90
2017-08-21T05:53:29.619Z,28.70
2017-08-21T05:54:29.599Z,26.60
2017-08-21T05:55:29.578Z,25.50
2017-08-21T05:56:29.559Z,27.40
2017-08-21T05:57:29.536Z,27.50
2017-08-21T05:58:29.513Z,26.30
2017-08-21T05:59:29.498Z,28.80
2017-08-21T06:00:29.475Z,27.90
2017-08-21T06:01:29.452Z,25.40
2017-08-21T06:02:29.430Z,24.00
2017-08-21T06:03:29.407Z,29.60
2017-08-21T06:04:29.387Z,28.10
2017-08-21T06:05:29.366Z,27.60
2017-08-21T06:06:29.345Z,26.90
2017-08-21T06:07:29.324Z,26.30
2017-08-21T06:08:29.307Z,24.70
2017-08-21T06:09:29.284Z,30.60
2017-08-21T06:10:29.283Z,28.00
2017-08-21T06:11:29.239Z,28.00
2017-08-21T06:12:29.219Z,25.80
2017-08-21T06:13:29.200Z,26.00
2017-08-21T06:14:29.183Z,24.70
2017-08-21T06:15:29.157Z,23.50
2017-08-21T06:16:29.137Z,21.50
2017-08-21T06:17:29.112Z,21.40
2017-08-21T06:18:29.098Z,25.70
2017-08-21T06:19:29.081Z,25.10
2017-08-21T06:20:29.056Z,22.20
2017-08-21T06:21:29.034Z,20.30
2017-08-21T06:22:29.010Z,19.40
2017-08-21T06:23:28.987Z,19.70
2017-08-21T06:24:28.972Z,21.10
2017-08-21T06:25:28.950Z,20.10
2017-08-21T06:26:28.943Z,21.00
2017-08-21T06:27:28.906Z,21.30
2017-08-21T06:28:28.885Z,21.30
2017-08-21T06:29:28.866Z,21.10
2017-08-21T06:30:28.844Z,20.10
2017-08-21T06:31:28.819Z,20.40
2017-08-21T06:32:28.801Z,19.20
2017-08-21T06:33:28.782Z,17.70
2017-08-21T06:34:28.757Z,16.90
2017-08-21T06:35:28.740Z,16.20
2017-08-21T06:36:28.718Z,15.20
2017-08-21T06:37:28.702Z,14.40
2017-08-21T06:38:28.677Z,15.80
2017-08-21T06:39:28.654Z,15.70
2017-08-21T06:40:28.637Z,16.10
2017-08-21T06:41:28.615Z,17.80
2017-08-21T06:42:28.591Z,18.70
2017-08-21T06:43:28.569Z,16.90
2017-08-21T06:44:28.549Z,14.50
2017-08-21T06:45:28.527Z,15.20
2017-08-21T06:46:28.505Z,15.10
2017-08-21T06:47:28.485Z,16.00
2017-08-21T06:48:28.465Z,17.20
2017-08-21T06:49:28.443Z,17.80
2017-08-21T06:50:28.421Z,17.20
2017-08-21T06:51:28.400Z,17.10
2017-08-21T06:52:28.379Z,14.10
2017-08-21T06:53:28.361Z,15.30
2017-08-21T06:54:28.339Z,15.80
2017-08-21T06:55:28.316Z,15.40
2017-08-21T06:56:28.296Z,15.00
2017-08-21T06:57:28.275Z,14.10
2017-08-21T06:58:28.253Z,13.60
2017-08-21T06:59:28.235Z,15.40
2017-08-21T07:00:28.213Z,14.70
2017-08-21T07:01:28.190Z,14.60
2017-08-21T07:02:28.169Z,15.30
2017-08-21T07:03:28.147Z,15.60
2017-08-21T07:04:28.128Z,14.40
2017-08-21T07:05:28.108Z,13.70
2017-08-21T07:06:28.086Z,13.40
2017-08-21T07:07:28.066Z,12.40
2017-08-21T07:08:28.044Z,11.70
2017-08-21T07:09:28.024Z,11.40
2017-08-21T07:10:28.002Z,12.20
2017-08-21T07:11:27.985Z,11.40
2017-08-21T07:12:27.962Z,10.30
2017-08-21T07:13:27.941Z,10.40
2017-08-21T07:14:27.920Z,11.70
2017-08-21T07:15:27.896Z,11.20
2017-08-21T07:16:27.880Z,10.10
2017-08-21T07:17:27.854Z,10.90
2017-08-21T07:18:27.838Z,10.60
2017-08-21T07:19:27.815Z,11.20
2017-08-21T07:20:27.796Z,10.30
2017-08-21T07:21:27.771Z,9.50
2017-08-21T07:22:27.752Z,10.50
2017-08-21T07:23:27.734Z,10.80
2017-08-21T07:24:27.707Z,9.40
2017-08-21T07:25:27.691Z,9.40
2017-08-21T07:26:27.665Z,8.50
2017-08-21T07:27:27.644Z,9.80
2017-08-21T07:28:27.628Z,10.50
2017-08-21T07:29:27.607Z,10.40
2017-08-21T07:30:27.586Z,9.40
2017-08-21T07:31:27.563Z,10.30
2017-08-21T07:32:27.541Z,9.60
2017-08-21T07:33:27.522Z,10.40
2017-08-21T07:34:27.499Z,9.70
2017-08-21T07:35:27.481Z,10.10
2017-08-21T07:36:27.456Z,9.30
2017-08-21T07:37:27.439Z,8.50
2017-08-21T07:38:27.413Z,8.60
2017-08-21T07:39:27.395Z,8.80
2017-08-21T07:40:27.374Z,8.30
2017-08-21T07:41:27.352Z,8.90
2017-08-21T07:42:27.335Z,8.60
2017-08-21T07:43:27.312Z,8.20
2017-08-21T07:44:27.290Z,7.60
2017-08-21T07:45:27.272Z,7.70
2017-08-21T07:46:27.247Z,7.10
2017-08-21T07:47:27.225Z,7.20
2017-08-21T07:48:27.204Z,6.80
2017-08-21T07:49:27.185Z,7.20
2017-08-21T07:50:27.163Z,6.90
2017-08-21T07:51:27.142Z,7.80
2017-08-21T07:52:27.125Z,7.50
2017-08-21T07:53:27.103Z,8.50
2017-08-21T07:54:27.081Z,7.80
2017-08-21T07:55:27.063Z,8.00
2017-08-21T07:56:27.039Z,8.80
2017-08-21T07:57:27.020Z,7.70
2017-08-21T07:58:26.997Z,7.40
2017-08-21T07:59:26.975Z,5.80
2017-08-21T08:00:26.958Z,5.00
2017-08-21T08:01:26.934Z,4.30
2017-08-21T08:02:26.917Z,5.00
2017-08-21T08:03:26.890Z,5.20
2017-08-21T08:04:26.869Z,5.10
2017-08-21T08:05:26.848Z,5.20
2017-08-21T08:06:26.828Z,5.10
2017-08-21T08:07:26.805Z,5.60
2017-08-21T08:08:26.787Z,5.20
2017-08-21T08:09:26.764Z,5.90
2017-08-21T08:10:26.747Z,5.90
2017-08-21T08:11:26.721Z,7.90
2017-08-21T08:12:26.702Z,9.90
2017-08-21T08:13:26.684Z,13.00
2017-08-21T08:14:26.662Z,14.80
2017-08-21T08:15:26.636Z,14.40
2017-08-21T08:16:26.616Z,17.30
2017-08-21T08:17:26.597Z,20.90
2017-08-21T08:18:26.574Z,21.50
2017-08-21T08:19:26.555Z,36.30
2017-08-21T08:20:26.536Z,34.60
2017-08-21T08:21:26.515Z,28.10
2017-08-21T08:22:26.495Z,29.70
2017-08-21T08:23:26.470Z,30.00
2017-08-21T08:24:26.452Z,30.00
2017-08-21T08:25:26.431Z,31.10
2017-08-21T08:26:26.406Z,41.10
2017-08-21T08:27:26.389Z,50.90
2017-08-21T08:28:26.362Z,52.30
2017-08-21T08:29:26.342Z,53.80
2017-08-21T08:30:26.327Z,55.20
2017-08-21T08:31:26.304Z,61.70
2017-08-21T08:32:26.278Z,90.70
2017-08-21T08:33:26.265Z,78.00
2017-08-21T08:34:26.237Z,73.70
2017-08-21T08:35:26.222Z,93.40
2017-08-21T08:36:26.199Z,99.10
2017-08-21T08:37:26.177Z,112.00
2017-08-21T08:38:26.158Z,138.60
2017-08-21T08:39:26.133Z,175.90
2017-08-21T08:40:26.111Z,186.30
2017-08-21T08:41:26.092Z,193.30
2017-08-21T08:42:26.078Z,193.60
2017-08-21T08:43:26.048Z,205.80
2017-08-21T08:44:26.029Z,210.40
2017-08-21T08:45:26.012Z,217.00
2017-08-21T08:46:25.986Z,203.30
2017-08-21T08:47:25.967Z,209.50
2017-08-21T08:48:25.943Z,207.40
2017-08-21T08:49:25.922Z,205.10
2017-08-21T08:50:25.903Z,212.70
2017-08-21T08:51:25.883Z,214.00
2017-08-21T08:52:25.863Z,220.90
2017-08-21T08:53:25.839Z,220.90
2017-08-21T08:54:25.820Z,212.00
2017-08-21T08:55:25.800Z,209.80
2017-08-21T08:56:25.778Z,202.40
2017-08-21T08:57:25.755Z,204.00
2017-08-21T08:58:25.737Z,203.30
2017-08-21T08:59:25.714Z,202.10
2017-08-21T09:00:25.692Z,191.30
2017-08-21T09:01:25.675Z,189.00
2017-08-21T09:02:25.653Z,193.70
2017-08-21T09:03:25.628Z,191.50
2017-08-21T09:04:25.610Z,190.40
2017-08-21T09:05:25.588Z,189.90
2017-08-21T09:06:25.567Z,189.00
2017-08-21T09:07:25.545Z,186.90
2017-08-21T09:08:25.529Z,186.80
2017-08-21T09:09:25.504Z,180.10
2017-08-21T09:10:25.483Z,181.30
2017-08-21T09:11:25.466Z,182.80
2017-08-21T09:12:25.440Z,181.30
2017-08-21T09:13:25.420Z,175.50
2017-08-21T09:14:25.400Z,182.30
2017-08-21T09:15:25.377Z,175.60
2017-08-21T09:16:25.358Z,172.90
2017-08-21T09:17:25.338Z,173.50
2017-08-21T09:18:25.318Z,169.90
2017-08-21T09:19:25.295Z,166.80
2017-08-21T09:20:25.273Z,169.40
2017-08-21T09:21:25.254Z,159.80
2017-08-21T09:22:25.233Z,164.60
2017-08-21T09:23:25.212Z,167.00
2017-08-21T09:24:25.192Z,165.60
2017-08-21T09:25:25.168Z,165.80
2017-08-21T09:26:25.150Z,161.60
2017-08-21T09:27:25.130Z,161.20
2017-08-21T09:28:25.106Z,160.00
2017-08-21T09:29:25.085Z,161.30
2017-08-21T09:30:25.066Z,160.80
2017-08-21T09:31:25.046Z,161.50
2017-08-21T09:32:25.021Z,163.40
2017-08-21T09:33:25.003Z,158.40
2017-08-21T09:34:24.980Z,159.90
2017-08-21T09:35:24.963Z,159.30
2017-08-21T09:36:24.942Z,160.50
2017-08-21T09:37:24.916Z,159.50
2017-08-21T09:38:24.900Z,153.20
2017-08-21T09:39:24.877Z,158.20
2017-08-21T09:40:24.854Z,159.50
2017-08-21T09:41:24.834Z,157.90
2017-08-21T09:42:24.816Z,157.00
2017-08-21T09:43:24.791Z,158.70
2017-08-21T09:44:24.773Z,156.30
2017-08-21T09:45:24.751Z,155.70
2017-08-21T09:46:24.733Z,153.00
2017-08-21T09:47:24.709Z,155.70
2017-08-21T09:48:24.686Z,154.20
2017-08-21T09:49:24.666Z,155.10
2017-08-21T09:50:24.648Z,150.70
2017-08-21T09:51:24.628Z,150.00
2017-08-21T09:52:24.602Z,148.30
2017-08-21T09:53:24.583Z,151.70
2017-08-21T09:54:24.564Z,151.80
2017-08-21T09:55:24.544Z,151.10
2017-08-21T09:56:24.521Z,153.40
2017-08-21T09:57:24.502Z,147.70
2017-08-21T09:58:24.489Z,148.40
2017-08-21T09:59:24.460Z,150.60
2017-08-21T10:00:24.443Z,147.40
2017-08-21T10:01:24.420Z,143.90
2017-08-21T10:02:24.400Z,150.40
2017-08-21T10:03:24.376Z,146.60
2017-08-21T10:04:24.352Z,146.10
2017-08-21T10:05:24.331Z,149.40
2017-08-21T10:06:24.315Z,144.70
2017-08-21T10:07:24.289Z,148.00
2017-08-21T10:08:24.273Z,145.40
2017-08-21T10:09:24.251Z,145.50
2017-08-21T10:10:24.228Z,145.20
2017-08-21T10:11:24.208Z,144.80
2017-08-21T10:12:24.184Z,142.90
2017-08-21T10:13:24.164Z,142.20
2017-08-21T10:14:24.145Z,142.30
2017-08-21T10:15:24.123Z,143.00
2017-08-21T10:16:24.109Z,143.60
2017-08-21T10:17:24.087Z,142.90
2017-08-21T10:18:24.063Z,144.40
2017-08-21T10:19:24.038Z,144.20
2017-08-21T10:20:24.018Z,143.20
2017-08-21T10:21:24.002Z,141.50
2017-08-21T10:22:23.977Z,144.90
2017-08-21T10:23:23.960Z,138.80
2017-08-21T10:24:23.936Z,138.20
2017-08-21T10:25:23.915Z,140.80
2017-08-21T10:26:23.895Z,137.80
2017-08-21T10:27:23.877Z,136.00
2017-08-21T10:28:23.854Z,139.20
2017-08-21T10:29:23.832Z,135.40
2017-08-21T10:30:23.813Z,136.70
2017-08-21T10:31:23.793Z,133.80
2017-08-21T10:32:23.770Z,133.80
2017-08-21T10:33:23.752Z,137.50
2017-08-21T10:34:23.731Z,134.50
2017-08-21T10:35:23.710Z,136.30
2017-08-21T10:36:23.687Z,135.80
2017-08-21T10:37:23.664Z,132.20
2017-08-21T10:38:23.648Z,135.90
2017-08-21T10:39:23.622Z,135.80
2017-08-21T10:40:23.606Z,129.90
2017-08-21T10:41:23.585Z,134.70
2017-08-21T10:42:23.564Z,131.80
2017-08-21T10:43:23.540Z,131.70
2017-08-21T10:44:23.518Z,133.20
2017-08-21T10:45:23.502Z,130.10
2017-08-21T10:46:23.479Z,128.50
2017-08-21T10:47:23.460Z,131.10
2017-08-21T10:48:23.439Z,132.40
2017-08-21T10:49:23.420Z,127.70
2017-08-21T10:50:23.394Z,128.40
2017-08-21T10:51:23.374Z,131.00
2017-08-21T10:52:23.352Z,129.70
2017-08-21T10:53:23.333Z,129.20
2017-08-21T10:54:23.311Z,130.80
2017-08-21T10:55:23.291Z,125.90
2017-08-21T10:56:23.270Z,124.50
2017-08-21T10:57:23.248Z,126.30
2017-08-21T10:58:23.229Z,128.10
2017-08-21T10:59:23.207Z,126.30
2017-08-21T11:00:23.191Z,128.70
2017-08-21T11:01:23.164Z,124.90
2017-08-21T11:02:23.148Z,126.70
2017-08-21T11:03:23.126Z,125.60
2017-08-21T11:04:23.102Z,124.70
2017-08-21T11:05:23.086Z,126.50
2017-08-21T11:06:23.065Z,126.90
2017-08-21T11:07:23.041Z,124.30
2017-08-21T11:08:23.022Z,123.60
2017-08-21T11:09:23.003Z,122.30
2017-08-21T11:10:22.981Z,122.00
2017-08-21T11:11:22.961Z,122.00
2017-08-21T11:12:22.938Z,124.40
2017-08-21T11:13:22.917Z,120.30
2017-08-21T11:14:22.893Z,122.40
2017-08-21T11:15:22.871Z,122.70
2017-08-21T11:16:22.853Z,121.00
2017-08-21T11:17:22.831Z,120.20
2017-08-21T11:18:22.812Z,121.30
2017-08-21T11:19:22.789Z,118.10
2017-08-21T11:20:22.773Z,119.80
2017-08-21T11:21:22.748Z,119.50
2017-08-21T11:22:22.732Z,117.10
2017-08-21T11:23:22.705Z,119.70
2017-08-21T11:24:22.686Z,116.80
2017-08-21T11:25:22.668Z,114.00
2017-08-21T11:26:22.645Z,117.60
2017-08-21T11:27:22.626Z,115.80
2017-08-21T11:28:22.602Z,118.60
2017-08-21T11:29:22.585Z,111.20
2017-08-21T11:30:22.571Z,116.30
2017-08-21T11:31:22.543Z,112.40
2017-08-21T11:32:22.524Z,112.90
2017-08-21T11:33:22.502Z,116.10
2017-08-21T11:34:22.482Z,118.60
2017-08-21T11:35:22.457Z,109.40
2017-08-21T11:36:22.436Z,112.80
2017-08-21T11:37:22.417Z,113.30
2017-08-21T11:38:22.394Z,112.40
2017-08-21T11:39:22.372Z,111.30
2017-08-21T11:40:22.354Z,114.20
2017-08-21T11:41:22.333Z,110.50
2017-08-21T11:42:22.313Z,114.70
2017-08-21T11:43:22.290Z,111.40
2017-08-21T11:44:22.269Z,112.20
2017-08-21T11:45:22.250Z,109.30
2017-08-21T11:46:22.227Z,112.40
2017-08-21T11:47:22.208Z,109.80
2017-08-21T11:48:22.189Z,111.60
2017-08-21T11:49:22.167Z,111.10
2017-08-21T11:50:22.147Z,110.70
2017-08-21T11:51:22.122Z,109.80
2017-08-21T11:52:22.101Z,110.40
2017-08-21T11:53:22.081Z,108.90
2017-08-21T11:54:22.065Z,105.00
2017-08-21T11:55:22.038Z,108.80
2017-08-21T11:56:22.019Z,109.30
2017-08-21T11:57:22.000Z,108.60
2017-08-21T11:58:21.977Z,108.60
2017-08-21T11:59:21.960Z,108.90
2017-08-21T12:00:21.940Z,104.50
2017-08-21T12:01:21.919Z,101.80
2017-08-21T12:02:21.896Z,106.60
2017-08-21T12:03:21.872Z,106.20
2017-08-21T12:04:21.851Z,105.30
2017-08-21T12:05:21.835Z,105.20
2017-08-21T12:06:21.810Z,104.20
2017-08-21T12:07:21.789Z,108.10
2017-08-21T12:08:21.768Z,101.60
2017-08-21T12:09:21.752Z,104.70
2017-08-21T12:10:21.727Z,103.00
2017-08-21T12:11:21.706Z,103.50
2017-08-21T12:12:21.687Z,102.60
2017-08-21T12:13:21.666Z,103.10
2017-08-21T12:14:21.644Z,105.00
2017-08-21T12:15:21.623Z,104.70
2017-08-21T12:16:21.600Z,101.00
2017-08-21T12:17:21.584Z,104.00
2017-08-21T12:18:21.560Z,103.90
2017-08-21T12:19:21.537Z,102.10
2017-08-21T12:20:21.521Z,102.50
2017-08-21T12:21:21.496Z,104.10
2017-08-21T12:22:21.478Z,104.40
2017-08-21T12:23:21.458Z,184.60
2017-08-21T12:24:21.434Z,186.60
2017-08-21T12:25:21.418Z,135.00
2017-08-21T12:26:21.394Z,155.80
2017-08-21T12:27:21.375Z,132.30
2017-08-21T12:28:21.353Z,133.70
2017-08-21T12:29:21.329Z,136.50
2017-08-21T12:30:21.314Z,149.30
2017-08-21T12:31:21.287Z,160.00
2017-08-21T12:32:21.266Z,172.20
2017-08-21T12:33:21.245Z,172.60
2017-08-21T12:34:21.227Z,150.20
2017-08-21T12:35:21.207Z,187.90
2017-08-21T12:36:21.185Z,191.60
2017-08-21T12:37:21.164Z,172.20
2017-08-21T12:38:21.146Z,172.70
2017-08-21T12:39:21.121Z,182.50
2017-08-21T12:40:21.101Z,196.00
2017-08-21T12:41:21.081Z,210.10
2017-08-21T12:42:21.062Z,238.30
2017-08-21T12:43:21.036Z,250.40
2017-08-21T12:44:21.017Z,248.80
2017-08-21T12:45:20.996Z,285.70
2017-08-21T12:46:20.977Z,283.00
2017-08-21T12:47:20.956Z,284.90
2017-08-21T12:48:20.935Z,284.30
2017-08-21T12:49:20.912Z,270.70
2017-08-21T12:50:20.895Z,263.80
2017-08-21T12:51:20.871Z,182.40
2017-08-21T12:52:20.852Z,105.90